createdAt,value
2018-09-06T00:00:42.985Z,82.40
2018-09-06T00:03:11.138Z,82.30
2018-09-06T00:05:39.280Z,82.20
2018-09-06T00:08:07.613Z,82.30
2018-09-06T00:10:35.736Z,82.40
2018-09-06T00:13:03.960Z,82.40
2018-09-06T00:15:32.223Z,82.50
2018-09-06T00:18:00.398Z,83.40
2018-09-06T00:20:28.544Z,82.60
2018-09-06T00:22:56.757Z,82.50
2018-09-06T00:25:24.895Z,82.90
2018-09-06T00:27:53.041Z,83.70
2018-09-06T00:30:21.176Z,84.20
2018-09-06T00:32:49.382Z,85.00
2018-09-06T00:35:17.515Z,85.70
2018-09-06T00:37:45.668Z,85.00
2018-09-06T00:40:13.784Z,84.80
2018-09-06T00:42:42.152Z,84.70
2018-09-06T00:45:10.297Z,85.00
2018-09-06T00:47:38.456Z,85.10
2018-09-06T00:50:12.807Z,84.70
2018-09-06T00:52:40.968Z,84.40
2018-09-06T00:55:09.252Z,83.90
2018-09-06T00:57:37.387Z,83.70
2018-09-06T01:00:05.531Z,83.60
2018-09-06T01:02:33.672Z,83.50
2018-09-06T01:05:01.798Z,83.10
2018-09-06T01:07:29.909Z,83.40
2018-09-06T01:09:58.050Z,83.50
2018-09-06T01:12:26.159Z,83.60
2018-09-06T01:14:54.525Z,83.60
2018-09-06T01:17:22.633Z,83.50
2018-09-06T01:19:50.766Z,83.80
2018-09-06T01:22:18.850Z,83.80
2018-09-06T01:24:46.957Z,83.90
2018-09-06T01:27:15.057Z,83.90
2018-09-06T01:29:43.192Z,84.00
2018-09-06T01:32:11.289Z,84.30
2018-09-06T01:34:39.423Z,84.40
2018-09-06T01:37:08.330Z,84.30
2018-09-06T01:39:37.081Z,84.90
2018-09-06T01:42:05.556Z,85.30
2018-09-06T01:44:33.694Z,85.00
2018-09-06T01:47:01.765Z,85.10
2018-09-06T01:49:30.194Z,85.40
2018-09-06T01:51:58.295Z,85.90
2018-09-06T01:54:26.413Z,86.40
2018-09-06T01:56:54.519Z,86.30
2018-09-06T01:59:22.613Z,86.20
2018-09-06T02:01:50.753Z,87.00
2018-09-06T02:04:18.852Z,86.30
2018-09-06T02:06:46.952Z,86.50
2018-09-06T02:09:15.147Z,86.60
2018-09-06T02:11:43.244Z,86.30
2018-09-06T02:14:11.365Z,86.30
2018-09-06T02:16:39.457Z,86.60
2018-09-06T02:19:07.591Z,86.60
2018-09-06T02:21:35.686Z,86.60
2018-09-06T02:24:03.786Z,86.70
2018-09-06T02:26:31.903Z,86.60
2018-09-06T02:29:00.019Z,86.70
2018-09-06T02:31:28.121Z,87.20
2018-09-06T02:33:56.229Z,87.20
2018-09-06T02:36:24.362Z,87.10
2018-09-06T02:38:52.487Z,87.00
2018-09-06T02:41:20.591Z,87.20
2018-09-06T02:43:48.705Z,87.20
2018-09-06T02:46:16.820Z,87.20
2018-09-06T02:48:44.921Z,87.30
2018-09-06T02:51:15.721Z,87.20
2018-09-06T02:53:44.100Z,87.10
2018-09-06T02:56:12.930Z,87.30
2018-09-06T02:58:41.032Z,87.50
2018-09-06T03:01:09.274Z,87.40
2018-09-06T03:03:37.422Z,87.30
2018-09-06T03:06:05.783Z,87.30
2018-09-06T03:08:33.902Z,87.60
2018-09-06T03:12:05.270Z,87.70
2018-09-06T03:14:33.416Z,87.80
2018-09-06T03:17:01.589Z,87.80
2018-09-06T03:19:29.748Z,87.80
2018-09-06T03:21:57.880Z,87.70
2018-09-06T03:24:26.013Z,87.80
2018-09-06T03:26:54.109Z,87.90
2018-09-06T03:29:22.230Z,88.10
2018-09-06T03:31:50.327Z,87.90
2018-09-06T03:34:18.439Z,87.90
2018-09-06T03:36:46.538Z,88.10
2018-09-06T03:39:14.689Z,88.30
2018-09-06T03:41:42.812Z,88.10
2018-09-06T03:44:10.917Z,88.20
2018-09-06T03:46:39.005Z,88.30
2018-09-06T03:49:07.124Z,88.30
2018-09-06T03:51:35.218Z,88.70
2018-09-06T03:54:03.343Z,88.90
2018-09-06T03:56:31.466Z,89.30
2018-09-06T03:58:59.570Z,89.50
2018-09-06T04:01:27.704Z,89.70
2018-09-06T04:03:55.813Z,89.70
2018-09-06T04:06:23.922Z,89.80
2018-09-06T04:08:52.024Z,90.00
2018-09-06T04:11:20.161Z,90.00
2018-09-06T04:13:48.267Z,90.20
2018-09-06T04:16:16.380Z,90.10
2018-09-06T04:18:44.473Z,90.20
2018-09-06T04:21:12.582Z,90.30
2018-09-06T04:23:40.692Z,90.50
2018-09-06T04:26:08.893Z,90.50
2018-09-06T04:28:43.109Z,90.60
2018-09-06T04:31:11.233Z,90.70
2018-09-06T04:33:39.337Z,90.70
2018-09-06T04:36:07.660Z,90.90
2018-09-06T04:38:35.655Z,90.80
2018-09-06T04:41:03.976Z,90.90
2018-09-06T04:43:32.436Z,91.00
2018-09-06T04:46:00.517Z,90.90
2018-09-06T04:48:28.623Z,90.90
2018-09-06T04:50:56.749Z,90.90
2018-09-06T04:53:24.856Z,90.80
2018-09-06T04:55:52.958Z,90.90
2018-09-06T04:58:21.121Z,90.80
2018-09-06T05:00:49.189Z,90.90
2018-09-06T05:03:17.430Z,90.70
2018-09-06T05:05:45.534Z,90.70
2018-09-06T05:08:14.481Z,90.70
2018-09-06T05:10:42.817Z,90.70
2018-09-06T05:13:10.948Z,90.70
2018-09-06T05:15:39.076Z,90.90
2018-09-06T05:18:07.223Z,91.00
2018-09-06T05:20:35.613Z,91.00
2018-09-06T05:23:04.136Z,90.90
2018-09-06T05:25:32.226Z,90.90
2018-09-06T05:28:00.335Z,91.50
2018-09-06T05:30:28.448Z,91.30
2018-09-06T05:32:56.643Z,91.40
2018-09-06T05:35:24.765Z,91.40
2018-09-06T05:37:52.856Z,91.50
2018-09-06T05:40:20.981Z,91.70
2018-09-06T05:42:49.101Z,91.70
2018-09-06T05:45:17.215Z,91.60
2018-09-06T05:47:49.581Z,91.70
2018-09-06T05:50:17.696Z,91.50
2018-09-06T05:52:45.804Z,91.40
2018-09-06T05:55:13.913Z,91.30
2018-09-06T05:57:42.012Z,91.20
2018-09-06T06:00:15.667Z,91.30
2018-09-06T06:02:43.795Z,91.30
2018-09-06T06:05:11.942Z,91.40
2018-09-06T06:07:51.691Z,91.50
2018-09-06T06:10:19.823Z,91.70
2018-09-06T06:12:47.921Z,91.70
2018-09-06T06:15:16.036Z,91.70
2018-09-06T06:17:44.142Z,91.70
2018-09-06T06:20:12.376Z,91.40
2018-09-06T06:22:40.505Z,91.40
2018-09-06T06:25:08.633Z,91.40
2018-09-06T06:27:36.742Z,91.40
2018-09-06T06:30:04.929Z,91.50
2018-09-06T06:32:33.341Z,91.80
2018-09-06T06:35:01.513Z,92.10
2018-09-06T06:37:29.625Z,92.30
2018-09-06T06:39:57.791Z,92.30
2018-09-06T06:42:25.844Z,92.50
2018-09-06T06:44:53.937Z,92.30
2018-09-06T06:47:22.045Z,92.20
2018-09-06T06:49:50.226Z,91.90
2018-09-06T06:52:18.332Z,91.90
2018-09-06T06:54:46.432Z,92.00
2018-09-06T06:57:14.582Z,92.00
2018-09-06T06:59:43.062Z,91.90
2018-09-06T07:02:11.189Z,91.80
2018-09-06T07:04:39.305Z,91.60
2018-09-06T07:07:07.471Z,91.90
2018-09-06T07:09:35.537Z,91.80
2018-09-06T07:12:03.642Z,91.80
2018-09-06T07:14:31.753Z,91.40
2018-09-06T07:17:00.446Z,91.30
2018-09-06T07:19:28.576Z,91.40
2018-09-06T07:21:56.690Z,91.40
2018-09-06T07:24:24.787Z,91.00
2018-09-06T07:26:52.903Z,90.60
2018-09-06T07:29:21.015Z,90.50
2018-09-06T07:31:49.134Z,90.40
2018-09-06T07:34:17.241Z,90.40
2018-09-06T07:36:45.378Z,90.70
2018-09-06T07:39:13.484Z,90.80
2018-09-06T07:41:41.607Z,90.80
2018-09-06T07:44:09.713Z,90.90
2018-09-06T07:46:37.825Z,90.00
2018-09-06T07:49:05.916Z,89.70
2018-09-06T07:51:34.127Z,90.00
2018-09-06T07:54:02.152Z,90.40
2018-09-06T07:56:30.251Z,90.80
2018-09-06T07:58:58.347Z,91.10
2018-09-06T08:01:26.476Z,90.50
2018-09-06T08:03:54.573Z,90.20
2018-09-06T08:06:22.664Z,89.00
2018-09-06T08:08:50.768Z,88.70
2018-09-06T08:11:18.878Z,87.10
2018-09-06T08:13:46.989Z,86.90
2018-09-06T08:16:15.111Z,87.50
2018-09-06T08:18:43.280Z,87.20
2018-09-06T08:21:11.361Z,87.00
2018-09-06T08:23:39.457Z,87.30
2018-09-06T08:26:07.763Z,87.10
2018-09-06T08:28:35.892Z,87.20
2018-09-06T08:31:04.075Z,87.50
2018-09-06T08:33:32.165Z,87.60
2018-09-06T08:36:00.259Z,87.60
2018-09-06T08:38:28.373Z,85.80
2018-09-06T08:40:56.500Z,86.60
2018-09-06T08:43:24.662Z,87.10
2018-09-06T08:45:52.725Z,87.30
2018-09-06T08:48:20.834Z,85.80
2018-09-06T08:50:48.937Z,85.70
2018-09-06T08:53:17.045Z,85.60
2018-09-06T08:55:45.161Z,85.90
2018-09-06T08:58:13.282Z,86.00
2018-09-06T09:00:45.626Z,86.10
2018-09-06T09:03:13.798Z,85.40
2018-09-06T09:05:41.827Z,85.00
2018-09-06T09:08:09.922Z,85.20
2018-09-06T09:10:38.029Z,85.50
2018-09-06T09:13:06.408Z,86.10
2018-09-06T09:15:34.773Z,85.70
2018-09-06T09:18:02.893Z,85.70
2018-09-06T09:20:30.995Z,83.60
2018-09-06T09:22:59.119Z,83.10
2018-09-06T09:25:27.242Z,82.60
2018-09-06T09:27:55.338Z,83.20
2018-09-06T09:30:23.446Z,83.00
2018-09-06T09:32:51.573Z,82.10
2018-09-06T09:35:19.669Z,81.00
2018-09-06T09:37:47.781Z,80.30
2018-09-06T09:40:15.881Z,78.70
2018-09-06T09:42:44.005Z,78.60
2018-09-06T09:45:12.149Z,78.50
2018-09-06T09:47:40.345Z,80.00
2018-09-06T09:50:08.421Z,80.40
2018-09-06T09:52:36.582Z,79.70
2018-09-06T09:55:04.685Z,79.10
2018-09-06T09:57:32.808Z,79.70
2018-09-06T10:00:01.099Z,79.70
2018-09-06T10:02:29.316Z,79.50
2018-09-06T10:05:02.977Z,79.30
2018-09-06T10:07:36.595Z,79.10
2018-09-06T10:10:04.726Z,78.70
2018-09-06T10:12:32.829Z,77.40
2018-09-06T10:15:00.936Z,78.50
2018-09-06T10:17:29.065Z,78.90
2018-09-06T10:19:57.212Z,79.80
2018-09-06T10:22:25.306Z,80.20
2018-09-06T10:24:53.398Z,81.20
2018-09-06T10:27:21.496Z,81.40
2018-09-06T10:29:49.650Z,81.00
2018-09-06T10:32:17.754Z,81.20
2018-09-06T10:34:45.866Z,80.70
2018-09-06T10:37:14.078Z,80.10
2018-09-06T10:39:42.327Z,80.00
2018-09-06T10:42:10.424Z,79.80
2018-09-06T10:44:38.545Z,79.60
2018-09-06T10:47:06.729Z,78.90
2018-09-06T10:49:34.830Z,78.80
2018-09-06T10:52:03.109Z,78.50
2018-09-06T10:54:31.235Z,78.10
2018-09-06T10:56:59.341Z,77.30
2018-09-06T10:59:28.076Z,76.60
2018-09-06T11:01:56.165Z,77.00
2018-09-06T11:04:24.274Z,76.80
2018-09-06T11:06:52.374Z,77.50
2018-09-06T11:09:20.489Z,77.20
2018-09-06T11:11:48.981Z,77.60
2018-09-06T11:14:17.090Z,76.80
2018-09-06T11:16:45.194Z,77.20
2018-09-06T11:19:13.314Z,77.00
2018-09-06T11:21:41.532Z,76.80
2018-09-06T11:24:09.545Z,77.20
2018-09-06T11:26:37.636Z,77.60
2018-09-06T11:29:05.819Z,76.70
2018-09-06T11:31:33.919Z,76.30
2018-09-06T11:34:02.088Z,76.30
2018-09-06T11:36:30.201Z,75.10
2018-09-06T11:38:58.558Z,75.70
2018-09-06T11:41:26.698Z,74.50
2018-09-06T11:43:54.821Z,74.50
2018-09-06T11:46:22.952Z,73.60
2018-09-06T11:48:51.121Z,73.50
2018-09-06T11:51:19.248Z,73.00
2018-09-06T11:53:47.332Z,73.00
2018-09-06T11:56:15.454Z,73.20
2018-09-06T11:58:43.561Z,74.00
2018-09-06T12:01:11.766Z,75.10
2018-09-06T12:03:39.933Z,74.10
2018-09-06T12:06:08.216Z,75.20
2018-09-06T12:08:36.233Z,75.10
2018-09-06T12:11:04.337Z,75.20
2018-09-06T12:13:32.472Z,75.00
2018-09-06T12:16:00.593Z,74.80
2018-09-06T12:18:28.706Z,74.70
2018-09-06T12:20:56.816Z,74.80
2018-09-06T12:23:24.921Z,74.00
2018-09-06T12:25:53.106Z,74.30
2018-09-06T12:28:21.226Z,75.00
2018-09-06T12:30:49.364Z,75.40
2018-09-06T12:33:17.567Z,76.50
2018-09-06T12:35:45.657Z,77.20
2018-09-06T12:38:13.759Z,76.90
2018-09-06T12:40:41.870Z,77.00
2018-09-06T12:43:10.021Z,77.20
2018-09-06T12:45:38.126Z,77.20
2018-09-06T12:48:06.285Z,77.20
2018-09-06T12:50:34.419Z,76.80
2018-09-06T12:53:02.560Z,76.80
2018-09-06T12:55:30.635Z,77.20
2018-09-06T12:57:58.740Z,76.50
2018-09-06T13:00:26.956Z,77.50
2018-09-06T13:02:55.056Z,77.30
2018-09-06T13:05:23.175Z,77.70
2018-09-06T13:07:51.290Z,76.70
2018-09-06T13:10:19.406Z,77.00
2018-09-06T13:12:47.490Z,76.30
2018-09-06T13:15:15.601Z,76.40
2018-09-06T13:17:43.724Z,75.30
2018-09-06T13:20:11.842Z,75.90
2018-09-06T13:22:39.954Z,75.10
2018-09-06T13:25:08.070Z,74.90
2018-09-06T13:27:36.187Z,74.30
2018-09-06T13:30:04.535Z,74.10
2018-09-06T13:32:32.642Z,74.90
2018-09-06T13:35:00.773Z,76.30
2018-09-06T13:37:28.883Z,76.60
2018-09-06T13:39:56.989Z,76.50
2018-09-06T13:42:25.182Z,77.00
2018-09-06T13:44:53.274Z,77.00
2018-09-06T13:47:21.396Z,77.70
2018-09-06T13:49:49.536Z,78.20
2018-09-06T13:52:17.729Z,78.60
2018-09-06T13:54:45.758Z,78.50
2018-09-06T13:57:13.849Z,78.40
2018-09-06T13:59:41.983Z,78.90
2018-09-06T14:02:10.106Z,79.10
2018-09-06T14:04:38.226Z,79.10
2018-09-06T14:07:06.523Z,78.40
2018-09-06T14:09:34.617Z,78.40
2018-09-06T14:12:04.293Z,77.90
2018-09-06T14:14:32.440Z,77.50
2018-09-06T14:17:00.546Z,78.00
2018-09-06T14:19:28.669Z,77.90
2018-09-06T14:21:56.797Z,77.80
2018-09-06T14:24:24.918Z,78.70
2018-09-06T14:26:53.025Z,79.20
2018-09-06T14:29:21.131Z,80.30
2018-09-06T14:31:49.253Z,80.70
2018-09-06T14:34:17.349Z,81.40
2018-09-06T14:36:45.454Z,81.80
2018-09-06T14:39:13.585Z,81.60
2018-09-06T14:41:41.705Z,81.40
2018-09-06T14:44:09.997Z,81.20
2018-09-06T14:46:37.993Z,81.10
2018-09-06T14:49:06.155Z,82.10
2018-09-06T14:51:34.258Z,83.10
2018-09-06T14:54:02.343Z,82.10
2018-09-06T14:56:30.461Z,81.80
2018-09-06T14:58:58.566Z,82.10
2018-09-06T15:01:26.698Z,81.20
2018-09-06T15:03:54.901Z,81.10
2018-09-06T15:06:23.026Z,80.30
2018-09-06T15:08:51.125Z,79.60
2018-09-06T15:11:19.230Z,78.70
2018-09-06T15:13:47.330Z,78.90
2018-09-06T15:16:15.449Z,79.60
2018-09-06T15:18:43.570Z,80.00
2018-09-06T15:21:11.674Z,79.20
2018-09-06T15:23:39.753Z,78.30
2018-09-06T15:26:07.873Z,76.80
2018-09-06T15:28:35.950Z,74.80
2018-09-06T15:31:04.041Z,72.60
2018-09-06T15:33:32.146Z,71.70
2018-09-06T15:36:00.246Z,71.00
2018-09-06T15:38:28.380Z,68.60
2018-09-06T15:40:56.813Z,68.40
2018-09-06T15:43:24.968Z,68.30
2018-09-06T15:45:53.038Z,67.60
2018-09-06T15:48:21.214Z,66.80
2018-09-06T15:50:49.320Z,66.30
2018-09-06T15:53:18.250Z,65.70
2018-09-06T15:55:46.392Z,65.30
2018-09-06T15:58:14.463Z,65.90
2018-09-06T16:00:42.587Z,66.30
2018-09-06T16:03:10.697Z,66.80
2018-09-06T16:05:38.813Z,67.50
2018-09-06T16:08:06.922Z,68.20
2018-09-06T16:10:35.016Z,69.10
2018-09-06T16:13:03.124Z,69.90
2018-09-06T16:15:31.220Z,70.70
2018-09-06T16:17:59.305Z,71.30
2018-09-06T16:20:27.399Z,72.00
2018-09-06T16:22:55.492Z,72.50
2018-09-06T16:25:23.669Z,72.90
2018-09-06T16:27:51.777Z,73.50
2018-09-06T16:30:19.975Z,73.00
2018-09-06T16:32:48.013Z,72.90
2018-09-06T16:35:16.119Z,73.00
2018-09-06T16:37:44.205Z,73.10
2018-09-06T16:40:12.293Z,73.40
2018-09-06T16:42:40.471Z,74.00
2018-09-06T16:45:08.547Z,73.00
2018-09-06T16:47:36.652Z,70.20
2018-09-06T16:50:04.757Z,69.30
2018-09-06T16:52:32.926Z,69.50
2018-09-06T16:55:00.981Z,69.20
2018-09-06T16:57:29.101Z,68.90
2018-09-06T16:59:57.212Z,69.60
2018-09-06T17:02:25.324Z,69.30
2018-09-06T17:04:53.461Z,69.60
2018-09-06T17:07:21.573Z,69.80
2018-09-06T17:09:49.734Z,70.20
2018-09-06T17:12:17.869Z,70.10
2018-09-06T17:14:46.005Z,69.70
2018-09-06T17:17:14.121Z,69.30
2018-09-06T17:19:42.336Z,69.40
2018-09-06T17:22:10.436Z,69.40
2018-09-06T17:24:38.534Z,69.80
2018-09-06T17:27:06.713Z,70.10
2018-09-06T17:29:34.838Z,70.10
2018-09-06T17:32:03.138Z,70.50
2018-09-06T17:34:31.254Z,71.00
2018-09-06T17:36:59.359Z,71.20
2018-09-06T17:39:27.469Z,71.60
2018-09-06T17:41:55.602Z,72.20
2018-09-06T17:44:23.706Z,72.40
2018-09-06T17:46:51.817Z,72.90
2018-09-06T17:49:19.926Z,73.30
2018-09-06T17:51:48.021Z,73.70
2018-09-06T17:54:16.121Z,73.90
2018-09-06T17:56:44.253Z,74.10
2018-09-06T17:59:12.384Z,74.20
2018-09-06T18:01:42.602Z,74.70
2018-09-06T18:04:10.784Z,74.40
2018-09-06T18:06:38.912Z,73.60
2018-09-06T18:09:08.390Z,71.70
2018-09-06T18:11:36.738Z,69.00
2018-09-06T18:14:04.870Z,69.40
2018-09-06T18:16:33.057Z,70.20
2018-09-06T18:19:01.193Z,69.40
2018-09-06T18:21:29.345Z,69.50
2018-09-06T18:23:57.722Z,70.10
2018-09-06T18:26:26.176Z,71.20
2018-09-06T18:28:54.299Z,70.80
2018-09-06T18:31:22.437Z,71.50
2018-09-06T18:33:50.618Z,72.20
2018-09-06T18:36:18.726Z,72.70
2018-09-06T18:38:47.465Z,73.30
2018-09-06T18:41:15.569Z,73.60
2018-09-06T18:43:43.814Z,74.80
2018-09-06T18:46:11.813Z,74.50
2018-09-06T18:48:40.077Z,74.90
2018-09-06T18:51:08.365Z,75.30
2018-09-06T18:53:36.496Z,75.60
2018-09-06T18:56:04.615Z,75.80
2018-09-06T18:58:32.721Z,76.10
2018-09-06T19:01:00.906Z,75.80
2018-09-06T19:03:29.032Z,76.70
2018-09-06T19:05:57.125Z,76.40
2018-09-06T19:08:25.286Z,76.70
2018-09-06T19:10:53.402Z,77.10
2018-09-06T19:13:21.544Z,77.30
2018-09-06T19:15:49.626Z,77.80
2018-09-06T19:18:17.793Z,78.00
2018-09-06T19:20:45.957Z,78.20
2018-09-06T19:23:14.068Z,78.60
2018-09-06T19:25:42.199Z,78.80
2018-09-06T19:28:10.289Z,79.20
2018-09-06T19:30:38.410Z,79.50
2018-09-06T19:33:06.587Z,79.90
2018-09-06T19:35:34.681Z,80.20
2018-09-06T19:38:02.778Z,80.30
2018-09-06T19:40:31.229Z,80.60
2018-09-06T19:42:59.357Z,80.70
2018-09-06T19:45:27.474Z,81.00
2018-09-06T19:47:55.573Z,81.30
2018-09-06T19:50:23.716Z,82.00
2018-09-06T19:52:51.828Z,82.30
2018-09-06T19:55:19.999Z,82.60
2018-09-06T19:57:48.254Z,82.70
2018-09-06T20:00:16.416Z,82.80
2018-09-06T20:02:44.489Z,83.10
2018-09-06T20:05:12.597Z,83.30
2018-09-06T20:07:40.695Z,83.20
2018-09-06T20:10:08.820Z,83.50
2018-09-06T20:12:37.123Z,84.70
2018-09-06T20:15:05.372Z,83.80
2018-09-06T20:17:33.662Z,84.00
2018-09-06T20:20:01.766Z,84.60
2018-09-06T20:22:30.032Z,84.30
2018-09-06T20:24:58.205Z,84.60
2018-09-06T20:27:26.310Z,84.70
2018-09-06T20:29:54.509Z,84.80
2018-09-06T20:32:22.626Z,84.80
2018-09-06T20:34:50.725Z,84.80
2018-09-06T20:37:18.834Z,85.10
2018-09-06T20:39:46.932Z,85.20
2018-09-06T20:42:15.074Z,85.10
2018-09-06T20:44:43.290Z,85.30
2018-09-06T20:47:11.373Z,85.50
2018-09-06T20:49:39.491Z,85.30
2018-09-06T20:52:07.712Z,85.50
2018-09-06T20:54:35.822Z,85.50
2018-09-06T20:57:04.266Z,85.60
2018-09-06T20:59:32.518Z,85.50
2018-09-06T21:02:06.189Z,86.30
2018-09-06T21:04:34.309Z,85.70
2018-09-06T21:07:02.685Z,86.00
2018-09-06T21:09:30.794Z,85.80
2018-09-06T21:11:58.898Z,86.20
2018-09-06T21:14:27.083Z,86.10
2018-09-06T21:16:55.117Z,85.90
2018-09-06T21:19:23.224Z,85.70
2018-09-06T21:21:51.421Z,85.60
2018-09-06T21:24:19.518Z,85.60
2018-09-06T21:26:47.616Z,85.80
2018-09-06T21:29:15.717Z,86.10
2018-09-06T21:31:43.843Z,86.00
2018-09-06T21:34:11.963Z,85.80
2018-09-06T21:36:40.077Z,85.80
2018-09-06T21:39:09.977Z,86.00
2018-09-06T21:41:38.167Z,86.00
2018-09-06T21:44:06.594Z,87.00
2018-09-06T21:46:34.881Z,86.50
2018-09-06T21:49:03.038Z,86.40
2018-09-06T21:51:31.182Z,86.50
2018-09-06T21:53:59.513Z,86.70
2018-09-06T21:56:27.637Z,86.90
2018-09-06T21:58:55.729Z,87.10
2018-09-06T22:01:24.158Z,87.10
2018-09-06T22:03:57.665Z,87.40
2018-09-06T22:06:25.790Z,87.60
2018-09-06T22:08:53.882Z,87.30
2018-09-06T22:11:22.165Z,86.60
2018-09-06T22:13:50.300Z,86.40
2018-09-06T22:16:18.625Z,86.40
2018-09-06T22:18:46.881Z,86.00
2018-09-06T22:21:15.016Z,86.20
2018-09-06T22:23:43.529Z,87.20
2018-09-06T22:26:11.625Z,86.60
2018-09-06T22:28:39.730Z,86.80
2018-09-06T22:31:08.012Z,87.00
2018-09-06T22:33:36.428Z,87.20
2018-09-06T22:36:04.890Z,87.30
2018-09-06T22:38:33.176Z,87.70
2018-09-06T22:41:08.026Z,87.70
2018-09-06T22:43:36.152Z,87.60
2018-09-06T22:46:04.281Z,87.60
2018-09-06T22:48:32.952Z,87.50
2018-09-06T22:51:01.590Z,87.30
2018-09-06T22:53:29.921Z,87.70
2018-09-06T22:55:58.070Z,86.80
2018-09-06T22:58:26.195Z,86.70
2018-09-06T23:00:54.298Z,86.40
2018-09-06T23:03:42.267Z,86.30
2018-09-06T23:06:10.422Z,86.40
2018-09-06T23:08:38.707Z,86.50
2018-09-06T23:11:06.842Z,86.50
2018-09-06T23:13:34.964Z,86.80
2018-09-06T23:16:03.070Z,86.70
2018-09-06T23:18:31.181Z,86.60
2018-09-06T23:20:59.305Z,86.70
2018-09-06T23:23:27.434Z,86.90
2018-09-06T23:25:55.646Z,86.90
2018-09-06T23:28:23.778Z,86.90
2018-09-06T23:30:51.896Z,86.80
2018-09-06T23:33:20.024Z,86.80
2018-09-06T23:35:48.154Z,86.90
2018-09-06T23:38:18.054Z,86.80
2018-09-06T23:40:51.545Z,86.80
2018-09-06T23:43:20.590Z,86.80
2018-09-06T23:45:51.706Z,86.60
2018-09-06T23:48:21.074Z,87.00
2018-09-06T23:50:49.147Z,86.80
2018-09-06T23:53:17.253Z,86.80
2018-09-06T23:55:45.356Z,86.70
2018-09-06T23:58:13.497Z,86.80
